Main page
METAR-TAF:

METAR-TAF

Airports :

Zeltweg Air Base

Zeltweg, Austria

latitude: 47-12N, longitude: 014-45E, elevation: 677 m

Current weather observation

The report was made 1 hour and 4 minutes ago, at 03:50 UTC
Wind 3 kt from the South
Temperature -5°C
Humidity 93%
Pressure 1015 hPa

METAR: LOXZ 160350Z 19003KT 15KM FEW090AC M05/M06 Q1015

Time: 05:54 (04:54 UTC)

Forecast

The report was made 17 hours and 39 minutes ago, at 11:15 UTC
Forecast valid from 15 at 12 UTC to 15 at 21 UTC
Wind 12 kt from the West/Northwest
Visibility 10 km or more
Few clouds at a height of 3000 ft
Scattered clouds at a height of 5000 ft
Temporary
from 15 at 12 UTC to 15 at 18 UTC
Wind 15 kt from the West/Northwest with gusts up to 27 kt

TAF: LOXZ 151115Z 1512/1521 29012KT 9999 FEW030 SCT050 TEMPO 1512/1518 30015G27KT

Weather observations and forecasts of more than 4000 airports (METAR and TAF reports).

The available stations are represented by yellow and red dots on the map.

Hover mouse over dot to see the name of the station.

Then click to see weather observations and forecasts.

To change the map : click on the green buttons with a black cross to zoom in, on the green button with a dash to zoom out, or on the green arrows for adjacent maps.


METAR-TAF: